Time;durP1;ratioP1;P1;durP2;ratioP2;P2;SDS_P1;SDS_P2;PMS_P1;PMS_P2;Temp;Humidity;BMP_temperature;BMP_pressure;BME280_temperature;BME280_humidity;BME280_pressure;Samples;Min_cycle;Max_cycle;Signal;HPM_P1;HPM_P2
2022/01/30 00:01:44;;;;;;;29.10;5.73;;;7.40;99.90;;;;;;5094799;28;20209;-83
2022/01/30 00:04:13;;;;;;;24.37;4.30;;;7.40;99.90;;;;;;5093826;28;20197;-83
2022/01/30 00:06:41;;;;;;;23.63;4.23;;;7.30;99.90;;;;;;5094360;28;20232;-82
2022/01/30 00:09:15;;;;;;;29.03;5.67;;;7.20;99.90;;;;;;5094795;28;20185;-82
2022/01/30 00:11:46;;;;;;;34.83;5.70;;;7.30;99.90;;;;;;5095210;28;20204;-80
2022/01/30 00:14:17;;;;;;;18.60;4.30;;;7.30;99.90;;;;;;5095289;28;20284;-84
2022/01/30 00:16:45;;;;;;;24.65;5.40;;;7.20;99.90;;;;;;5096140;28;20441;-81
2022/01/30 00:19:21;;;;;;;23.27;5.20;;;7.20;99.90;;;;;;5094992;28;20211;-86
2022/01/30 00:21:53;;;;;;;25.40;5.13;;;7.20;99.90;;;;;;5094064;28;20204;-90
2022/01/30 00:24:32;;;;;;;17.23;5.03;;;7.20;99.90;;;;;;5094524;28;20290;-83
2022/01/30 00:27:11;;;;;;;24.53;4.77;;;7.10;99.90;;;;;;5096403;28;20228;-86
2022/01/30 00:29:41;;;;;;;19.93;4.33;;;7.10;99.90;;;;;;5094570;28;20224;-81
2022/01/30 00:32:08;;;;;;;24.00;5.07;;;7.00;99.90;;;;;;5095074;28;20197;-87
2022/01/30 00:34:39;;;;;;;22.30;4.70;;;7.00;99.90;;;;;;5094700;28;20197;-82
2022/01/30 00:37:08;;;;;;;22.60;4.30;;;7.00;99.90;;;;;;5096161;28;20201;-81
2022/01/30 00:39:41;;;;;;;23.97;4.63;;;6.90;99.90;;;;;;5096606;28;20691;-81
2022/01/30 00:42:09;;;;;;;22.90;4.37;;;6.90;99.90;;;;;;5094498;28;20224;-81
2022/01/30 00:44:35;;;;;;;17.97;5.03;;;6.80;99.90;;;;;;5093788;28;20205;-80
2022/01/30 00:47:13;;;;;;;20.40;4.47;;;6.80;99.90;;;;;;5094335;28;20224;-80
2022/01/30 00:49:45;;;;;;;21.73;4.93;;;6.70;99.90;;;;;;5095895;28;20224;-83
2022/01/30 00:52:16;;;;;;;24.43;4.60;;;6.70;99.90;;;;;;5094959;28;20304;-85
2022/01/30 00:54:43;;;;;;;21.47;4.70;;;6.70;99.90;;;;;;5095141;28;20231;-85
2022/01/30 00:57:10;;;;;;;20.33;4.33;;;6.70;99.90;;;;;;5094522;28;20664;-85
2022/01/30 00:59:37;;;;;;;19.57;4.07;;;6.80;99.90;;;;;;5094928;28;20212;-83
2022/01/30 01:02:06;;;;;;;22.17;4.47;;;6.80;99.90;;;;;;5093937;28;20197;-82
2022/01/30 01:04:34;;;;;;;19.33;4.47;;;6.70;99.90;;;;;;5093907;28;20201;-82
2022/01/30 01:07:06;;;;;;;22.87;4.27;;;6.70;99.90;;;;;;5093667;28;20583;-90
2022/01/30 01:09:38;;;;;;;22.60;4.13;;;6.70;99.90;;;;;;5092779;28;20235;-83
2022/01/30 01:12:33;;;;;;;18.53;4.17;;;6.60;99.90;;;;;;5093635;28;20250;-82
2022/01/30 01:23:26;;;;;;;25.57;4.83;;;6.80;99.90;;;;;;5097715;28;20200;-79
2022/01/30 01:25:53;;;;;;;25.67;4.93;;;6.70;99.90;;;;;;5096973;28;20305;-83
2022/01/30 01:28:21;;;;;;;25.70;4.67;;;6.60;99.90;;;;;;5097752;28;20299;-84
2022/01/30 01:30:49;;;;;;;28.63;4.77;;;6.50;99.90;;;;;;5097947;28;20189;-84
2022/01/30 01:33:16;;;;;;;23.10;4.60;;;6.40;99.90;;;;;;5097119;28;20205;-84
2022/01/30 01:35:45;;;;;;;22.37;4.40;;;6.40;99.90;;;;;;5096819;28;20240;-80
2022/01/30 01:38:14;;;;;;;20.63;4.23;;;6.40;99.90;;;;;;5096799;28;20629;-82
2022/01/30 01:40:51;;;;;;;20.60;4.03;;;6.40;99.90;;;;;;5096233;28;20227;-80
2022/01/30 01:43:26;;;;;;;18.80;5.13;;;6.30;99.90;;;;;;5098647;28;20204;-81
2022/01/30 01:45:58;;;;;;;24.87;4.83;;;6.20;99.90;;;;;;5097905;28;20659;-89
2022/01/30 01:48:32;;;;;;;17.40;4.30;;;6.10;99.90;;;;;;5097869;28;20559;-82
2022/01/30 01:51:06;;;;;;;29.58;6.22;;;6.10;99.90;;;;;;5096998;28;20593;-82
2022/01/30 01:53:36;;;;;;;26.33;5.50;;;6.20;99.90;;;;;;5097182;28;20197;-85
2022/01/30 01:56:04;;;;;;;27.33;4.87;;;6.20;99.90;;;;;;5097080;28;20216;-85
2022/01/30 01:58:35;;;;;;;24.47;4.77;;;6.20;99.90;;;;;;5096754;28;20200;-83
2022/01/30 02:01:08;;;;;;;24.73;5.30;;;6.20;99.90;;;;;;5097035;28;20212;-83
2022/01/30 02:03:39;;;;;;;31.23;5.40;;;6.20;99.90;;;;;;5097484;28;20205;-83
2022/01/30 02:06:12;;;;;;;26.50;5.30;;;6.00;99.90;;;;;;5097081;28;20247;-86
2022/01/30 02:08:43;;;;;;;24.00;4.53;;;6.10;99.90;;;;;;5098145;28;20618;-85
2022/01/30 02:11:16;;;;;;;32.43;5.07;;;6.10;99.90;;;;;;5097727;28;20227;-91
2022/01/30 02:14:15;;;;;;;21.50;4.70;;;6.00;99.90;;;;;;5097225;28;20197;-85
2022/01/30 02:25:14;;;;;;;31.20;5.27;;;5.80;99.90;;;;;;5099788;28;20219;-84
2022/01/30 02:27:41;;;;;;;24.17;4.70;;;5.80;99.90;;;;;;5097992;28;20220;-86
2022/01/30 02:30:13;;;;;;;27.13;4.30;;;5.80;99.90;;;;;;5098996;28;20189;-82
2022/01/30 02:32:41;;;;;;;22.53;5.03;;;5.70;99.90;;;;;;5098187;28;20724;-86
2022/01/30 02:35:09;;;;;;;25.10;4.77;;;5.80;99.90;;;;;;5096851;28;20240;-84
2022/01/30 02:37:47;;;;;;;29.33;5.67;;;5.80;99.90;;;;;;5098202;28;20228;-84
2022/01/30 02:40:15;;;;;;;26.97;4.90;;;5.70;99.90;;;;;;5097817;28;20283;-85
2022/01/30 02:42:47;;;;;;;20.47;4.37;;;5.70;99.90;;;;;;5097279;28;20212;-87
2022/01/30 02:45:17;;;;;;;23.50;3.90;;;5.70;99.90;;;;;;5096689;28;20219;-85
2022/01/30 02:48:12;;;;;;;18.87;4.57;;;5.70;99.90;;;;;;5096189;28;20667;-86
2022/01/30 02:50:56;;;;;;;25.90;4.47;;;5.90;99.90;;;;;;5097694;28;20201;-83
2022/01/30 02:53:31;;;;;;;25.08;6.20;;;5.90;99.90;;;;;;5096537;28;21003;-83
2022/01/30 02:56:00;;;;;;;33.03;5.23;;;6.00;99.90;;;;;;5097773;28;20208;-85
2022/01/30 02:58:27;;;;;;;23.00;4.87;;;5.90;99.90;;;;;;5096056;28;20232;-88
2022/01/30 03:00:57;;;;;;;16.83;4.60;;;5.90;99.90;;;;;;5095755;28;20204;-84
2022/01/30 03:03:26;;;;;;;25.40;6.10;;;5.90;99.90;;;;;;5096129;28;20193;-83
2022/01/30 03:05:53;;;;;;;24.30;4.70;;;5.90;99.90;;;;;;5097583;28;20201;-84
2022/01/30 03:08:22;;;;;;;25.07;5.27;;;5.90;99.90;;;;;;5095653;28;20600;-81
2022/01/30 03:10:51;;;;;;;16.53;4.00;;;5.80;99.90;;;;;;5096278;28;20189;-82
2022/01/30 03:13:17;;;;;;;26.50;4.90;;;5.80;99.90;;;;;;5095212;28;20215;-80
2022/01/30 03:15:48;;;;;;;22.70;4.17;;;5.80;99.90;;;;;;5094845;28;20205;-83
2022/01/30 03:18:14;;;;;;;22.80;5.13;;;5.90;99.90;;;;;;5095396;28;20296;-84
2022/01/30 03:20:42;;;;;;;24.87;4.33;;;5.80;99.90;;;;;;5095659;28;20223;-83
2022/01/30 03:23:10;;;;;;;27.60;5.60;;;5.80;99.90;;;;;;5095164;28;20188;-84
2022/01/30 03:25:37;;;;;;;19.70;4.57;;;5.80;99.90;;;;;;5097292;28;20197;-83
2022/01/30 03:28:05;;;;;;;22.97;4.60;;;5.80;99.90;;;;;;5096941;28;20225;-84
2022/01/30 03:30:38;;;;;;;22.63;4.37;;;5.80;99.90;;;;;;5098603;28;20213;-81
2022/01/30 03:33:07;;;;;;;20.77;4.60;;;5.80;99.90;;;;;;5097146;28;20209;-84
2022/01/30 03:35:35;;;;;;;23.57;4.90;;;5.80;99.90;;;;;;5096747;28;20189;-81
2022/01/30 03:38:02;;;;;;;21.07;4.43;;;5.70;99.90;;;;;;5096349;28;20211;-87
2022/01/30 03:40:29;;;;;;;22.80;5.00;;;5.60;99.90;;;;;;5096569;28;20217;-86
2022/01/30 03:42:58;;;;;;;13.90;4.53;;;5.50;99.90;;;;;;5095950;28;20587;-86
2022/01/30 03:45:27;;;;;;;18.03;4.23;;;5.60;99.90;;;;;;5094978;28;20193;-86
2022/01/30 03:48:00;;;;;;;23.33;4.40;;;5.60;99.90;;;;;;5094518;28;20585;-85
2022/01/30 03:50:28;;;;;;;26.43;4.30;;;5.80;99.90;;;;;;5094243;28;20201;-91
2022/01/30 03:52:57;;;;;;;15.83;3.10;;;5.80;99.90;;;;;;5093987;28;20209;-86
2022/01/30 03:55:26;;;;;;;20.87;5.07;;;5.70;99.90;;;;;;5094464;28;20430;-86
2022/01/30 03:57:53;;;;;;;22.57;4.73;;;5.70;99.90;;;;;;5094506;28;20442;-90
2022/01/30 04:00:21;;;;;;;23.10;3.97;;;5.70;99.90;;;;;;5096504;28;20204;-85
2022/01/30 04:02:51;;;;;;;25.53;4.00;;;5.70;99.90;;;;;;5101420;28;20694;-85
2022/01/30 04:05:19;;;;;;;17.37;3.73;;;5.60;99.90;;;;;;5101094;28;20212;-84
2022/01/30 04:07:48;;;;;;;25.13;3.97;;;5.70;99.90;;;;;;5100787;28;20220;-84
2022/01/30 04:10:17;;;;;;;20.17;4.07;;;5.70;99.90;;;;;;5102226;28;20585;-84
2022/01/30 04:12:45;;;;;;;20.43;4.77;;;5.60;99.90;;;;;;5101241;28;20190;-81
2022/01/30 04:15:18;;;;;;;18.17;3.73;;;5.60;99.90;;;;;;5097795;28;20232;-81
2022/01/30 04:17:45;;;;;;;18.40;3.90;;;5.60;99.90;;;;;;5095340;28;20209;-83
2022/01/30 04:20:17;;;;;;;23.07;4.23;;;5.50;99.90;;;;;;5095739;28;20201;-81
2022/01/30 04:22:44;;;;;;;21.33;3.67;;;5.40;99.90;;;;;;5096010;28;20193;-80
2022/01/30 04:25:14;;;;;;;21.53;4.20;;;5.40;99.90;;;;;;5094813;28;20649;-81
2022/01/30 04:27:41;;;;;;;24.00;4.80;;;5.40;99.90;;;;;;5093502;28;20450;-81
2022/01/30 04:30:11;;;;;;;27.57;5.63;;;5.40;99.90;;;;;;5094426;28;20212;-82
2022/01/30 04:32:44;;;;;;;18.03;3.93;;;5.50;99.90;;;;;;5093987;28;20632;-81
2022/01/30 04:35:21;;;;;;;22.90;4.70;;;5.50;99.90;;;;;;5094214;28;20196;-83
2022/01/30 04:38:03;;;;;;;19.63;3.93;;;5.50;99.90;;;;;;5094059;28;20189;-81
2022/01/30 04:57:24;;;;;;;21.87;3.90;;;5.20;99.90;;;;;;5100261;28;20224;-86
2022/01/30 05:00:06;;;;;;;22.97;4.70;;;5.10;99.90;;;;;;5097201;28;20442;-85
2022/01/30 05:02:49;;;;;;;23.27;4.93;;;5.10;99.90;;;;;;5098325;28;20216;-80
2022/01/30 05:05:45;;;;;;;16.73;4.00;;;5.20;99.90;;;;;;5097570;28;20699;-87
2022/01/30 05:08:14;;;;;;;23.57;4.20;;;5.00;99.90;;;;;;5097531;28;20217;-80
2022/01/30 05:10:43;;;;;;;20.57;3.57;;;5.00;99.90;;;;;;5098136;28;20193;-82
2022/01/30 05:13:17;;;;;;;13.53;4.47;;;5.00;99.90;;;;;;5097275;28;20237;-81
2022/01/30 05:15:44;;;;;;;21.07;3.93;;;5.00;99.90;;;;;;5097794;28;20255;-80
2022/01/30 05:18:18;;;;;;;21.80;4.53;;;4.90;99.90;;;;;;5097430;28;20643;-81
2022/01/30 05:20:45;;;;;;;18.23;4.10;;;4.90;99.90;;;;;;5097497;28;20216;-83
2022/01/30 05:23:17;;;;;;;17.30;3.70;;;4.80;99.90;;;;;;5097301;28;20267;-81
2022/01/30 05:25:46;;;;;;;19.87;4.07;;;4.70;99.90;;;;;;5097448;28;20205;-81
2022/01/30 05:28:14;;;;;;;19.00;5.40;;;4.60;99.90;;;;;;5096749;28;20224;-82
2022/01/30 05:30:42;;;;;;;17.83;4.77;;;4.60;99.90;;;;;;5096812;28;20186;-92
2022/01/30 05:33:12;;;;;;;22.80;5.28;;;4.50;99.90;;;;;;5095802;28;20426;-90
2022/01/30 05:35:39;;;;;;;26.10;5.03;;;4.50;99.90;;;;;;5099564;28;20208;-80
2022/01/30 05:38:07;;;;;;;27.43;4.70;;;4.60;99.90;;;;;;5099340;28;20209;-82
2022/01/30 05:40:36;;;;;;;24.77;4.87;;;4.70;99.90;;;;;;5099891;28;20228;-89
2022/01/30 05:43:06;;;;;;;25.10;4.63;;;4.70;99.90;;;;;;5099270;28;20190;-82
2022/01/30 05:45:37;;;;;;;15.37;3.80;;;4.60;99.90;;;;;;5099036;28;20208;-80
2022/01/30 05:48:10;;;;;;;23.50;4.90;;;4.50;99.90;;;;;;5099518;28;20625;-91
2022/01/30 05:50:39;;;;;;;15.97;4.27;;;4.60;99.90;;;;;;5097393;28;20656;-84
2022/01/30 05:53:07;;;;;;;24.77;4.77;;;4.50;99.90;;;;;;5097464;28;20221;-93
2022/01/30 05:55:38;;;;;;;20.77;5.47;;;4.40;99.90;;;;;;5097343;28;20430;-86
2022/01/30 05:58:06;;;;;;;28.47;5.17;;;4.30;99.90;;;;;;5096673;28;20637;-84
2022/01/30 06:00:33;;;;;;;25.20;4.43;;;4.30;99.90;;;;;;5096311;28;20453;-80
2022/01/30 06:03:00;;;;;;;16.47;4.00;;;4.20;99.90;;;;;;5095635;28;20209;-80
2022/01/30 06:05:31;;;;;;;26.63;4.50;;;4.20;99.90;;;;;;5095789;28;20437;-81
2022/01/30 06:08:09;;;;;;;25.83;4.30;;;4.40;99.90;;;;;;5097422;28;20557;-82
2022/01/30 06:10:37;;;;;;;21.00;4.30;;;4.40;99.90;;;;;;5096400;28;20679;-89
2022/01/30 06:13:05;;;;;;;20.17;4.37;;;4.40;99.90;;;;;;5096535;28;20430;-81
2022/01/30 06:15:32;;;;;;;29.53;5.73;;;4.40;99.90;;;;;;5096307;28;20182;-80
2022/01/30 06:18:01;;;;;;;21.13;4.23;;;4.40;99.90;;;;;;5096772;28;20540;-82
2022/01/30 06:20:28;;;;;;;18.63;3.80;;;4.40;99.90;;;;;;5095521;28;20540;-81
2022/01/30 06:22:58;;;;;;;22.63;4.43;;;4.50;99.90;;;;;;5094344;28;20810;-86
2022/01/30 06:25:25;;;;;;;20.47;5.20;;;4.50;99.90;;;;;;5093938;28;20201;-80
2022/01/30 06:27:55;;;;;;;26.60;4.50;;;4.50;99.90;;;;;;5095103;28;20236;-82
2022/01/30 06:30:22;;;;;;;20.17;4.53;;;4.50;99.90;;;;;;5094842;28;20460;-81
2022/01/30 06:32:52;;;;;;;23.70;4.47;;;4.50;99.90;;;;;;5095801;28;20262;-81
2022/01/30 06:35:25;;;;;;;20.13;4.60;;;4.50;99.90;;;;;;5094988;28;20200;-80
2022/01/30 06:37:52;;;;;;;17.47;3.90;;;4.50;99.90;;;;;;5094744;28;20453;-81
2022/01/30 06:40:22;;;;;;;24.50;5.97;;;4.50;99.90;;;;;;5093304;28;20430;-81
2022/01/30 06:42:49;;;;;;;28.53;5.03;;;4.60;99.90;;;;;;5094959;28;20196;-81
2022/01/30 06:45:20;;;;;;;26.73;4.90;;;4.60;99.90;;;;;;5095844;28;20193;-80
2022/01/30 06:47:48;;;;;;;25.77;4.27;;;4.60;99.90;;;;;;5096769;28;20217;-80
2022/01/30 06:50:15;;;;;;;23.37;5.30;;;4.50;99.90;;;;;;5096497;28;20216;-81
2022/01/30 06:52:43;;;;;;;20.30;5.13;;;4.50;99.90;;;;;;5096046;28;20449;-81
2022/01/30 06:55:11;;;;;;;21.27;4.93;;;4.60;99.90;;;;;;5095895;28;20201;-81
2022/01/30 06:57:44;;;;;;;20.83;4.77;;;4.50;99.90;;;;;;5095487;28;20446;-80
2022/01/30 07:00:11;;;;;;;23.23;4.23;;;4.50;99.90;;;;;;5095718;28;20252;-85
2022/01/30 07:02:41;;;;;;;19.70;4.17;;;4.50;99.90;;;;;;5094742;28;20193;-82
2022/01/30 07:05:09;;;;;;;13.53;3.60;;;4.60;99.90;;;;;;5095160;28;20275;-81
2022/01/30 07:07:37;;;;;;;27.07;5.30;;;4.60;99.90;;;;;;5095166;28;20426;-84
2022/01/30 07:10:06;;;;;;;21.97;4.60;;;4.60;99.90;;;;;;5095833;28;20637;-80
2022/01/30 07:12:39;;;;;;;22.90;5.45;;;4.60;99.90;;;;;;5094752;28;20434;-82
2022/01/30 07:15:07;;;;;;;18.33;4.40;;;4.70;99.90;;;;;;5095712;28;20201;-82
2022/01/30 07:17:35;;;;;;;17.73;4.87;;;4.60;99.90;;;;;;5095349;28;20213;-82
2022/01/30 07:20:05;;;;;;;19.83;4.07;;;4.60;99.90;;;;;;5095541;28;20207;-80
2022/01/30 07:22:34;;;;;;;24.03;4.40;;;4.40;99.90;;;;;;5095709;28;20785;-82
2022/01/30 07:25:00;;;;;;;21.73;5.33;;;4.40;99.90;;;;;;5097189;28;20198;-86
2022/01/30 07:27:29;;;;;;;23.10;4.70;;;4.30;99.90;;;;;;5096255;28;20213;-86
2022/01/30 07:29:59;;;;;;;21.90;5.07;;;4.20;99.90;;;;;;5093429;28;20504;-86
2022/01/30 07:32:26;;;;;;;27.93;4.87;;;4.30;99.90;;;;;;5095346;28;20185;-82
2022/01/30 07:34:54;;;;;;;18.60;4.47;;;4.40;99.90;;;;;;5094013;28;20430;-84
2022/01/30 07:37:29;;;;;;;26.50;4.93;;;4.50;99.90;;;;;;5094483;28;20185;-83
2022/01/30 07:39:59;;;;;;;22.27;5.33;;;4.40;99.90;;;;;;5094526;28;20433;-80
2022/01/30 07:42:26;;;;;;;20.83;5.40;;;4.30;99.90;;;;;;5095054;28;20208;-80
2022/01/30 07:44:56;;;;;;;21.70;4.70;;;4.30;99.90;;;;;;5094489;28;20454;-82
2022/01/30 07:47:28;;;;;;;23.85;5.82;;;4.20;99.90;;;;;;5092589;28;20448;-82
2022/01/30 07:49:55;;;;;;;21.77;5.20;;;4.30;99.90;;;;;;5093570;28;20239;-84
2022/01/30 07:52:23;;;;;;;23.10;6.77;;;4.40;99.90;;;;;;5093204;28;20216;-81
2022/01/30 07:54:52;;;;;;;31.37;6.30;;;4.50;99.90;;;;;;5093322;28;20256;-85
2022/01/30 07:57:22;;;;;;;23.63;4.83;;;4.50;99.90;;;;;;5093037;28;20205;-83
2022/01/30 07:59:49;;;;;;;24.97;4.57;;;4.50;99.90;;;;;;5093660;28;20212;-80
2022/01/30 08:02:17;;;;;;;18.47;5.17;;;4.40;99.90;;;;;;5095508;28;20453;-85
2022/01/30 08:04:46;;;;;;;20.97;5.43;;;4.40;99.90;;;;;;5094402;28;20193;-82
2022/01/30 08:07:19;;;;;;;19.27;4.03;;;4.50;99.90;;;;;;5095027;28;20202;-82
2022/01/30 08:09:47;;;;;;;20.67;4.73;;;4.70;99.90;;;;;;5094967;28;20319;-86
2022/01/30 08:12:16;;;;;;;18.80;4.80;;;4.80;99.90;;;;;;5095618;28;20205;-80
2022/01/30 08:14:43;;;;;;;24.33;5.10;;;4.80;99.90;;;;;;5095884;28;20207;-79
2022/01/30 08:17:11;;;;;;;21.40;5.20;;;4.80;99.90;;;;;;5093919;28;20370;-83
2022/01/30 08:19:38;;;;;;;14.13;4.60;;;4.90;99.90;;;;;;5094840;28;20193;-86
2022/01/30 08:22:06;;;;;;;19.70;5.50;;;4.90;99.90;;;;;;5094505;28;20312;-79
2022/01/30 08:24:33;;;;;;;24.80;4.37;;;4.80;99.90;;;;;;5095325;28;20219;-79
2022/01/30 08:27:01;;;;;;;25.33;5.33;;;4.80;99.90;;;;;;5099622;28;20207;-79
2022/01/30 08:29:30;;;;;;;18.77;5.33;;;4.80;99.90;;;;;;5097109;28;20231;-80
2022/01/30 08:31:58;;;;;;;26.10;6.03;;;4.90;99.90;;;;;;5097736;28;20196;-81
2022/01/30 08:34:25;;;;;;;22.20;5.00;;;4.90;99.90;;;;;;5098250;28;20228;-81
2022/01/30 08:36:55;;;;;;;17.40;5.03;;;5.00;99.90;;;;;;5097844;28;20433;-86
2022/01/30 08:39:23;;;;;;;25.00;5.53;;;4.90;99.90;;;;;;5097446;28;20201;-83
2022/01/30 08:41:52;;;;;;;21.57;5.43;;;4.90;99.90;;;;;;5096574;28;20676;-82
2022/01/30 08:44:21;;;;;;;26.13;5.43;;;4.90;99.90;;;;;;5097166;28;20488;-88
2022/01/30 08:46:49;;;;;;;20.10;4.80;;;4.90;99.90;;;;;;5097617;28;20660;-81
2022/01/30 08:49:16;;;;;;;24.43;5.83;;;4.90;99.90;;;;;;5097370;28;20844;-85
2022/01/30 08:51:43;;;;;;;15.47;4.40;;;4.90;99.90;;;;;;5097347;28;20445;-80
2022/01/30 08:54:13;;;;;;;20.42;5.90;;;5.00;99.90;;;;;;5096655;28;20893;-80
2022/01/30 08:56:40;;;;;;;26.37;5.30;;;5.20;99.90;;;;;;5097152;28;20201;-82
2022/01/30 08:59:06;;;;;;;18.63;5.20;;;5.20;99.90;;;;;;5097194;28;20205;-78
2022/01/30 09:01:34;;;;;;;18.67;4.23;;;5.40;99.90;;;;;;5097825;28;20196;-80
2022/01/30 09:04:14;;;;;;;20.30;4.87;;;5.50;99.90;;;;;;5098741;28;20197;-87
2022/01/30 09:06:41;;;;;;;22.80;4.93;;;5.50;99.90;;;;;;5097832;28;20201;-84
2022/01/30 09:09:10;;;;;;;18.27;4.33;;;5.50;99.90;;;;;;5098602;28;20607;-91
2022/01/30 09:11:38;;;;;;;20.03;4.10;;;5.60;99.90;;;;;;5102151;28;20651;-91
2022/01/30 09:14:07;;;;;;;20.50;5.03;;;5.70;99.90;;;;;;5099112;28;20197;-83
2022/01/30 09:16:35;;;;;;;18.73;4.50;;;5.70;99.90;;;;;;5099939;28;20831;-80
2022/01/30 09:19:02;;;;;;;20.10;4.50;;;5.60;99.90;;;;;;5098284;28;20212;-87
2022/01/30 09:21:31;;;;;;;24.27;4.57;;;5.70;99.90;;;;;;5096586;28;20194;-84
2022/01/30 09:23:59;;;;;;;18.13;4.10;;;5.70;99.90;;;;;;5097151;28;20284;-84
2022/01/30 09:26:27;;;;;;;24.23;4.90;;;5.70;99.90;;;;;;5099025;28;20233;-88
2022/01/30 09:28:54;;;;;;;18.37;4.00;;;5.70;99.90;;;;;;5098580;28;20220;-82
2022/01/30 09:31:23;;;;;;;25.37;4.23;;;5.80;99.90;;;;;;5096053;28;20574;-83
2022/01/30 09:33:50;;;;;;;18.67;4.17;;;5.90;99.90;;;;;;5096153;28;20189;-83
2022/01/30 09:36:18;;;;;;;21.00;4.60;;;5.90;99.90;;;;;;5096795;28;20208;-84
2022/01/30 09:38:47;;;;;;;11.23;3.80;;;6.00;99.90;;;;;;5096484;28;20315;-85
2022/01/30 09:41:16;;;;;;;20.23;3.83;;;6.00;99.90;;;;;;5096957;28;20224;-84
2022/01/30 09:43:46;;;;;;;19.55;4.68;;;6.20;99.90;;;;;;5096349;28;20446;-85
2022/01/30 09:46:20;;;;;;;18.80;4.40;;;6.30;99.90;;;;;;5099045;28;20204;-83
2022/01/30 09:48:53;;;;;;;19.13;4.80;;;6.40;99.90;;;;;;5100384;28;20225;-85
2022/01/30 09:51:20;;;;;;;30.63;5.13;;;6.50;99.90;;;;;;5096625;28;20196;-82
2022/01/30 09:53:49;;;;;;;25.33;5.00;;;6.50;99.90;;;;;;5096886;28;20205;-81
2022/01/30 09:56:18;;;;;;;16.47;4.03;;;6.50;99.90;;;;;;5097092;28;20210;-82
2022/01/30 09:58:47;;;;;;;19.90;4.33;;;6.50;99.90;;;;;;5096605;28;20212;-83
2022/01/30 10:01:14;;;;;;;15.93;3.83;;;6.70;99.90;;;;;;5096179;28;20224;-81
2022/01/30 10:03:41;;;;;;;19.70;4.27;;;6.80;99.90;;;;;;5096851;28;20208;-80
2022/01/30 10:06:12;;;;;;;18.43;4.40;;;6.80;99.90;;;;;;5097321;28;20205;-81
2022/01/30 10:08:43;;;;;;;16.20;4.07;;;6.80;99.90;;;;;;5096212;28;20213;-77
2022/01/30 10:11:30;;;;;;;20.30;4.20;;;6.90;99.90;;;;;;5096521;28;20288;-75
2022/01/30 10:14:04;;;;;;;16.17;4.73;;;6.90;99.90;;;;;;5094285;28;20683;-76
2022/01/30 10:16:43;;;;;;;20.30;4.77;;;6.90;99.90;;;;;;5096486;28;20200;-77
2022/01/30 10:19:17;;;;;;;25.13;4.50;;;6.90;99.90;;;;;;5096287;28;20201;-79
2022/01/30 10:21:44;;;;;;;19.67;4.33;;;7.00;99.90;;;;;;5097329;28;20207;-76
2022/01/30 10:24:24;;;;;;;25.60;4.20;;;7.10;99.90;;;;;;5096099;28;20197;-75
2022/01/30 10:26:55;;;;;;;15.47;3.50;;;7.20;99.90;;;;;;5097261;28;20201;-82
2022/01/30 10:29:23;;;;;;;20.43;4.57;;;7.20;99.90;;;;;;5095387;28;20235;-76
2022/01/30 10:32:01;;;;;;;23.63;5.80;;;7.10;99.90;;;;;;5096431;28;20193;-77
2022/01/30 10:34:28;;;;;;;23.70;5.00;;;7.20;99.90;;;;;;5096231;28;20197;-77
2022/01/30 10:37:18;;;;;;;16.27;3.93;;;7.30;99.90;;;;;;5096431;28;20311;-77
2022/01/30 10:40:13;;;;;;;23.87;4.70;;;7.30;99.90;;;;;;5095406;28;20196;-80
2022/01/30 10:42:45;;;;;;;26.67;5.73;;;7.50;99.90;;;;;;5085157;28;20230;-77
2022/01/30 10:45:15;;;;;;;16.97;4.33;;;7.70;99.90;;;;;;5095728;28;20193;-78
2022/01/30 10:47:44;;;;;;;17.80;3.93;;;7.80;99.90;;;;;;5095420;28;20515;-77
2022/01/30 10:50:17;;;;;;;19.50;3.80;;;7.70;99.90;;;;;;5095073;28;20251;-75
2022/01/30 10:52:56;;;;;;;17.80;4.60;;;7.60;99.90;;;;;;5092509;28;20686;-75
2022/01/30 10:55:40;;;;;;;21.73;4.30;;;7.50;99.90;;;;;;5094360;28;20288;-76
2022/01/30 10:58:14;;;;;;;20.97;4.43;;;7.40;99.90;;;;;;5094583;28;20209;-83
2022/01/30 11:00:48;;;;;;;37.03;7.87;;;7.50;99.90;;;;;;5095365;28;20209;-82
2022/01/30 11:03:44;;;;;;;20.73;3.63;;;7.50;99.90;;;;;;5096163;28;20204;-78
2022/01/30 11:06:14;;;;;;;19.03;4.40;;;7.40;99.90;;;;;;5095871;28;20185;-76
2022/01/30 11:08:44;;;;;;;18.70;4.17;;;7.50;99.90;;;;;;5095080;28;20247;-77
2022/01/30 11:11:26;;;;;;;22.50;4.27;;;7.70;99.90;;;;;;5094235;28;20191;-79
2022/01/30 11:14:15;;;;;;;19.87;4.20;;;7.60;99.90;;;;;;5094223;28;20201;-80
2022/01/30 11:19:40;;;;;;;22.10;3.97;;;7.70;99.90;;;;;;5093806;28;20224;-81
2022/01/30 11:22:09;;;;;;;12.93;4.27;;;7.80;99.90;;;;;;5094200;28;20201;-82
2022/01/30 11:24:43;;;;;;;22.70;3.87;;;7.80;99.90;;;;;;5094400;28;20223;-79
2022/01/30 11:27:10;;;;;;;16.53;3.93;;;7.90;99.90;;;;;;5094463;28;20194;-76
2022/01/30 11:29:38;;;;;;;14.87;3.73;;;7.90;99.90;;;;;;5094758;28;20245;-81
2022/01/30 11:32:07;;;;;;;18.77;3.73;;;7.80;99.90;;;;;;5094793;28;20201;-78
2022/01/30 11:34:36;;;;;;;19.50;4.60;;;7.80;99.90;;;;;;5094861;28;20509;-81
2022/01/30 11:37:05;;;;;;;20.03;4.73;;;8.00;99.90;;;;;;5096658;28;20189;-83
2022/01/30 11:39:32;;;;;;;12.97;3.63;;;8.10;99.90;;;;;;5095441;28;20216;-82
2022/01/30 11:42:08;;;;;;;18.27;3.87;;;8.00;99.90;;;;;;5095318;28;20193;-79
2022/01/30 11:44:38;;;;;;;15.10;3.97;;;7.90;99.90;;;;;;5092710;28;20197;-76
2022/01/30 11:47:23;;;;;;;19.93;4.40;;;8.00;99.90;;;;;;5093630;28;20212;-77
2022/01/30 11:50:08;;;;;;;18.20;5.30;;;8.00;99.90;;;;;;5093430;28;20232;-77
2022/01/30 11:53:00;;;;;;;16.57;4.00;;;8.20;99.90;;;;;;5093142;28;20209;-77
2022/01/30 11:55:49;;;;;;;20.73;4.82;;;8.40;99.90;;;;;;5092421;28;20427;-76
2022/01/30 11:58:38;;;;;;;20.53;3.93;;;8.40;99.90;;;;;;5092754;28;20543;-79
2022/01/30 12:01:13;;;;;;;21.27;3.90;;;8.40;99.90;;;;;;5092352;28;20733;-78
2022/01/30 12:03:54;;;;;;;26.53;3.90;;;8.30;99.90;;;;;;5092868;28;20671;-76
2022/01/30 12:06:35;;;;;;;15.53;3.27;;;8.30;99.90;;;;;;5092942;28;20880;-76
2022/01/30 12:09:04;;;;;;;21.53;4.20;;;8.40;99.90;;;;;;5093488;28;20201;-78
2022/01/30 12:11:51;;;;;;;14.97;3.70;;;8.40;99.90;;;;;;5094690;28;20660;-76
2022/01/30 12:14:55;;;;;;;19.37;3.30;;;8.40;99.90;;;;;;5093733;28;20559;-83
2022/01/30 12:17:58;;;;;;;12.83;3.20;;;8.40;99.90;;;;;;5093616;28;20291;-78
2022/01/30 12:20:30;;;;;;;12.87;3.00;;;8.50;99.90;;;;;;5094240;28;20730;-82
2022/01/30 12:22:57;;;;;;;14.00;3.10;;;8.40;99.90;;;;;;5096052;28;20216;-79
2022/01/30 12:25:53;;;;;;;15.90;3.20;;;8.30;99.90;;;;;;5095972;28;20190;-80
2022/01/30 12:28:39;;;;;;;16.30;2.90;;;8.30;99.90;;;;;;5094750;28;20578;-80
2022/01/30 12:31:24;;;;;;;9.67;2.90;;;8.30;99.90;;;;;;5094730;28;20225;-81
2022/01/30 12:33:59;;;;;;;11.47;3.67;;;8.10;99.90;;;;;;5093965;28;20573;-81
2022/01/30 12:36:30;;;;;;;14.60;3.33;;;8.10;99.90;;;;;;5093853;28;20184;-78
2022/01/30 12:39:06;;;;;;;17.43;3.87;;;8.10;99.90;;;;;;5093125;28;20207;-80
2022/01/30 12:41:38;;;;;;;19.67;4.80;;;8.20;99.90;;;;;;5094022;28;20430;-84
2022/01/30 12:44:09;;;;;;;12.87;3.23;;;8.30;99.90;;;;;;5095690;28;20204;-84
2022/01/30 12:46:46;;;;;;;16.43;3.60;;;8.40;99.90;;;;;;5096149;28;20212;-85
2022/01/30 12:49:15;;;;;;;16.17;3.43;;;8.50;99.90;;;;;;5095985;28;20231;-83
2022/01/30 12:51:47;;;;;;;19.63;4.57;;;8.80;99.90;;;;;;5094519;28;20217;-84
2022/01/30 12:54:20;;;;;;;11.03;2.93;;;8.80;99.90;;;;;;5093461;28;20287;-83
2022/01/30 12:56:50;;;;;;;16.63;4.10;;;8.90;99.90;;;;;;5095566;28;20193;-86
2022/01/30 12:59:24;;;;;;;10.27;3.27;;;8.90;99.90;;;;;;5094646;28;20213;-84
2022/01/30 13:01:52;;;;;;;12.30;3.37;;;8.90;99.90;;;;;;5094511;28;20201;-85
2022/01/30 13:04:22;;;;;;;18.83;3.70;;;8.80;99.90;;;;;;5094576;28;20201;-86
2022/01/30 13:06:56;;;;;;;11.73;3.83;;;8.80;99.90;;;;;;5095827;28;20207;-85
2022/01/30 13:09:31;;;;;;;18.33;3.63;;;8.80;99.90;;;;;;5095728;28;20212;-87
2022/01/30 13:12:13;;;;;;;15.40;3.27;;;8.80;99.90;;;;;;5097607;28;20534;-87
2022/01/30 13:14:42;;;;;;;21.17;3.90;;;8.90;99.90;;;;;;5102932;28;20189;-84
2022/01/30 13:17:11;;;;;;;23.27;3.40;;;8.90;99.90;;;;;;5101329;28;20194;-89
2022/01/30 13:19:42;;;;;;;11.37;3.23;;;9.00;99.90;;;;;;5100581;28;20215;-86
2022/01/30 13:22:12;;;;;;;19.80;4.40;;;8.90;99.90;;;;;;5097613;28;20200;-78
2022/01/30 13:24:40;;;;;;;14.03;3.73;;;8.70;99.90;;;;;;5097561;28;20208;-79
2022/01/30 13:27:08;;;;;;;20.40;3.60;;;8.60;99.90;;;;;;5095891;28;20205;-79
2022/01/30 13:29:37;;;;;;;17.20;3.70;;;8.60;99.90;;;;;;5095537;28;20600;-79
2022/01/30 13:32:08;;;;;;;14.63;3.80;;;8.70;99.90;;;;;;5097991;28;20641;-79
2022/01/30 13:34:37;;;;;;;14.83;3.70;;;8.90;99.90;;;;;;5097387;28;20201;-84
2022/01/30 13:37:09;;;;;;;11.93;3.03;;;8.90;99.90;;;;;;5096937;28;20193;-84
2022/01/30 13:39:47;;;;;;;16.87;4.23;;;8.80;99.90;;;;;;5097652;28;20196;-83
2022/01/30 13:42:47;;;;;;;19.97;4.07;;;8.70;99.90;;;;;;5096531;28;20197;-90
2022/01/30 13:48:13;;;;;;;12.40;2.80;;;8.70;99.90;;;;;;5096541;28;20196;-85
2022/01/30 13:50:43;;;;;;;19.67;4.28;;;8.80;99.90;;;;;;5093079;28;20458;-83